Time;durP1;ratioP1;P1;durP2;ratioP2;P2;SDS_P1;SDS_P2;PMS_P1;PMS_P2;Temp;Humidity;BMP_temperature;BMP_pressure;BME280_temperature;BME280_humidity;BME280_pressure;Samples;Min_cycle;Max_cycle;Signal;HPM_P1;HPM_P2
2021/12/16 00:03:38;;;;;;;63.07;38.50;;;9.70;99.90;;;;;;5029013;28;20202;-77
2021/12/16 00:06:48;;;;;;;60.70;36.13;;;9.70;99.90;;;;;;5027234;28;20195;-77
2021/12/16 00:09:15;;;;;;;61.90;37.23;;;9.80;99.90;;;;;;5027279;28;20187;-77
2021/12/16 00:31:18;;;;;;;58.67;35.73;;;9.80;99.90;;;;;;5021332;28;20223;-77
2021/12/16 00:33:59;;;;;;;60.47;38.93;;;9.70;99.90;;;;;;5038338;28;20230;-77
2021/12/16 00:36:28;;;;;;;62.20;37.90;;;9.70;99.90;;;;;;5037623;28;20187;-77
2021/12/16 00:38:55;;;;;;;60.43;36.00;;;9.70;99.90;;;;;;5030919;28;20210;-77
2021/12/16 00:41:22;;;;;;;63.33;37.17;;;9.70;99.90;;;;;;5033951;28;20222;-77
2021/12/16 00:43:54;;;;;;;64.43;37.97;;;9.70;99.90;;;;;;5029333;28;20206;-77
2021/12/16 00:46:53;;;;;;;58.13;36.90;;;9.70;99.90;;;;;;5027042;28;20209;-77
2021/12/16 00:49:32;;;;;;;59.80;36.93;;;9.60;99.90;;;;;;5027880;28;20573;-77
2021/12/16 00:54:53;;;;;;;65.80;37.73;;;9.60;99.90;;;;;;5036575;28;20207;-79
2021/12/16 00:57:20;;;;;;;69.33;38.67;;;9.60;99.90;;;;;;5029828;28;20203;-78
2021/12/16 00:59:51;;;;;;;65.37;38.70;;;9.60;99.90;;;;;;5032053;28;20210;-78
2021/12/16 01:02:36;;;;;;;65.37;38.50;;;9.70;99.90;;;;;;5041940;28;20243;-78
2021/12/16 01:34:09;;;;;;;82.07;43.10;;;9.60;99.90;;;;;;5048196;28;20211;-78
2021/12/16 01:36:56;;;;;;;79.20;43.30;;;9.60;99.90;;;;;;5026837;28;20192;-78
2021/12/16 01:50:31;;;;;;;84.70;45.37;;;9.60;99.90;;;;;;5047773;28;20211;-78
2021/12/16 01:53:17;;;;;;;79.23;44.00;;;9.60;99.90;;;;;;5047500;28;20199;-78
2021/12/16 01:55:53;;;;;;;78.10;44.60;;;9.60;99.90;;;;;;5042867;28;20279;-78
2021/12/16 01:58:24;;;;;;;78.83;43.20;;;9.60;99.90;;;;;;5049605;28;20194;-78
2021/12/16 02:01:00;;;;;;;82.43;45.50;;;9.60;99.90;;;;;;5047205;28;20227;-78
2021/12/16 02:03:40;;;;;;;84.40;46.43;;;9.60;99.90;;;;;;5020260;28;20194;-78
2021/12/16 02:06:23;;;;;;;85.97;46.07;;;9.70;99.90;;;;;;5029515;28;20198;-78
2021/12/16 02:09:06;;;;;;;83.97;46.30;;;9.60;99.90;;;;;;5040078;28;20214;-78
2021/12/16 02:11:49;;;;;;;82.60;45.60;;;9.60;99.90;;;;;;5035613;28;21680;-78
2021/12/16 02:28:15;;;;;;;73.27;43.17;;;10.00;99.90;;;;;;5030274;28;20209;-78
2021/12/16 02:33:53;;;;;;;75.63;42.57;;;10.00;99.90;;;;;;5027958;28;20541;-78
2021/12/16 02:36:29;;;;;;;77.70;43.27;;;10.10;99.90;;;;;;5034259;28;20204;-78
2021/12/16 02:39:02;;;;;;;81.17;45.73;;;10.10;99.90;;;;;;5031604;28;20201;-78
2021/12/16 02:41:30;;;;;;;70.87;43.43;;;10.10;99.90;;;;;;5023416;28;20588;-78
2021/12/16 02:44:19;;;;;;;79.30;44.60;;;10.00;99.90;;;;;;5046935;28;20206;-78
2021/12/16 02:49:44;;;;;;;75.33;42.73;;;10.10;99.90;;;;;;5032846;28;20202;-78
2021/12/16 02:52:14;;;;;;;68.33;42.33;;;10.10;99.90;;;;;;5045462;28;20211;-78
2021/12/16 02:54:43;;;;;;;75.53;44.20;;;10.10;99.90;;;;;;5029242;28;20590;-78
2021/12/16 02:57:11;;;;;;;81.30;42.83;;;10.10;99.90;;;;;;5044586;28;20195;-78
2021/12/16 02:59:40;;;;;;;73.00;43.80;;;10.10;99.90;;;;;;5031393;28;20199;-78
2021/12/16 03:02:11;;;;;;;74.67;43.53;;;10.10;99.90;;;;;;5045204;28;20223;-78
2021/12/16 03:04:56;;;;;;;78.87;44.47;;;10.10;99.90;;;;;;5041360;28;20195;-78
2021/12/16 03:07:25;;;;;;;76.57;44.90;;;10.10;99.90;;;;;;5048911;28;20206;-78
2021/12/16 03:13:01;;;;;;;80.73;45.03;;;10.00;99.90;;;;;;5020988;28;20664;-78
2021/12/16 03:15:47;;;;;;;78.57;42.63;;;10.00;99.90;;;;;;5026850;28;20215;-78
2021/12/16 03:18:38;;;;;;;80.47;44.67;;;9.90;99.90;;;;;;5024243;28;20650;-78
2021/12/16 03:21:15;;;;;;;75.07;41.90;;;9.90;99.90;;;;;;5039040;28;20604;-78
2021/12/16 03:23:58;;;;;;;78.17;44.13;;;9.90;99.90;;;;;;5024939;28;20198;-78
2021/12/16 03:29:32;;;;;;;73.90;42.63;;;9.80;99.90;;;;;;5001863;28;20206;-78
2021/12/16 03:35:26;;;;;;;82.63;45.00;;;9.80;99.90;;;;;;5010890;28;20232;-78
2021/12/16 03:37:56;;;;;;;76.57;44.50;;;9.70;99.90;;;;;;5044137;28;20572;-78
2021/12/16 03:40:26;;;;;;;77.23;44.47;;;9.70;99.90;;;;;;5047136;28;20223;-78
2021/12/16 03:43:01;;;;;;;83.83;44.40;;;9.70;99.90;;;;;;5027354;28;20206;-78
2021/12/16 03:48:29;;;;;;;85.37;45.53;;;9.80;99.90;;;;;;5045616;28;20195;-78
2021/12/16 03:50:58;;;;;;;83.33;42.43;;;9.70;99.90;;;;;;5042271;28;20218;-78
2021/12/16 03:53:26;;;;;;;82.20;45.07;;;9.70;99.90;;;;;;5046098;28;20661;-78
2021/12/16 03:55:55;;;;;;;78.97;43.93;;;9.80;99.90;;;;;;5031547;28;20210;-78
2021/12/16 03:58:25;;;;;;;85.97;46.90;;;9.90;99.90;;;;;;5049978;28;20218;-78
2021/12/16 04:01:00;;;;;;;81.87;45.40;;;9.80;99.90;;;;;;5045143;28;20219;-78
2021/12/16 04:03:28;;;;;;;79.40;45.27;;;9.80;99.90;;;;;;5049637;28;20206;-78
2021/12/16 04:05:57;;;;;;;77.97;44.47;;;9.80;99.90;;;;;;5027582;28;20199;-78
2021/12/16 04:08:25;;;;;;;75.73;43.77;;;9.80;99.90;;;;;;5028966;28;20569;-78
2021/12/16 04:11:04;;;;;;;81.03;45.57;;;9.90;99.90;;;;;;5032330;28;20218;-78
2021/12/16 04:13:53;;;;;;;75.80;43.90;;;9.90;99.90;;;;;;5027038;28;20200;-78
2021/12/16 04:16:29;;;;;;;76.57;43.33;;;9.90;99.90;;;;;;5050188;28;20219;-78
2021/12/16 04:19:02;;;;;;;77.20;44.50;;;9.90;99.90;;;;;;5049150;28;20191;-78
2021/12/16 04:21:29;;;;;;;74.27;43.97;;;9.90;99.90;;;;;;5051029;28;20218;-78
2021/12/16 04:23:59;;;;;;;78.07;46.27;;;9.90;99.90;;;;;;5033142;28;20210;-78
2021/12/16 04:26:30;;;;;;;76.70;43.77;;;10.00;99.90;;;;;;5042368;28;20199;-78
2021/12/16 04:28:59;;;;;;;72.10;42.13;;;10.00;99.90;;;;;;5032920;28;20214;-78
2021/12/16 04:31:28;;;;;;;77.17;44.60;;;10.10;99.90;;;;;;5048070;28;20226;-78
2021/12/16 04:33:55;;;;;;;73.80;44.83;;;10.10;99.90;;;;;;5027422;28;20661;-78
2021/12/16 04:36:25;;;;;;;69.00;43.10;;;10.10;99.90;;;;;;5049489;28;20211;-78
2021/12/16 04:39:31;;;;;;;72.90;43.73;;;10.10;99.90;;;;;;5036943;28;20661;-78
2021/12/16 04:42:01;;;;;;;69.93;41.60;;;10.10;99.90;;;;;;5026744;28;20215;-78
2021/12/16 04:44:30;;;;;;;78.77;45.47;;;10.00;99.90;;;;;;5050174;28;20202;-78
2021/12/16 04:46:59;;;;;;;74.70;43.30;;;9.90;99.90;;;;;;5027312;28;20661;-78
2021/12/16 04:49:27;;;;;;;68.87;41.83;;;10.00;99.90;;;;;;5026722;28;20187;-78
2021/12/16 04:51:59;;;;;;;73.80;44.07;;;10.00;99.90;;;;;;5056485;28;20594;-78
2021/12/16 04:54:29;;;;;;;74.30;44.27;;;10.00;99.90;;;;;;5045493;28;20569;-78
2021/12/16 04:56:58;;;;;;;76.93;43.67;;;9.90;99.90;;;;;;5031851;28;20214;-78
2021/12/16 04:59:29;;;;;;;78.60;45.43;;;9.90;99.90;;;;;;5023485;28;20200;-78
2021/12/16 05:02:01;;;;;;;73.13;43.37;;;9.90;99.90;;;;;;5023969;28;20225;-78
2021/12/16 05:04:49;;;;;;;74.63;44.00;;;9.80;99.90;;;;;;5032509;28;20199;-78
2021/12/16 05:07:25;;;;;;;78.20;44.57;;;9.80;99.90;;;;;;5031914;28;20217;-78
2021/12/16 05:10:14;;;;;;;79.33;44.80;;;9.70;99.90;;;;;;5033000;28;20206;-78
2021/12/16 05:12:49;;;;;;;88.93;47.77;;;9.70;99.90;;;;;;5032764;28;20205;-78
2021/12/16 05:15:19;;;;;;;84.27;46.10;;;9.70;99.90;;;;;;5049405;28;20214;-78
2021/12/16 05:17:52;;;;;;;83.80;45.87;;;9.70;99.90;;;;;;5048372;28;20202;-78
2021/12/16 05:20:23;;;;;;;81.43;44.63;;;9.60;99.90;;;;;;5041267;28;20203;-78
2021/12/16 05:25:59;;;;;;;82.47;45.57;;;9.80;99.90;;;;;;5037208;28;20179;-78
2021/12/16 05:28:28;;;;;;;89.00;48.30;;;9.70;99.90;;;;;;5025221;28;20206;-78
2021/12/16 05:30:57;;;;;;;87.60;46.87;;;9.70;99.90;;;;;;5025395;28;20704;-78
2021/12/16 05:33:38;;;;;;;82.77;47.17;;;9.60;99.90;;;;;;5022649;28;20199;-78
2021/12/16 05:36:06;;;;;;;86.20;46.90;;;9.60;99.90;;;;;;5028249;28;20216;-78
2021/12/16 05:38:35;;;;;;;85.07;47.03;;;9.60;99.90;;;;;;5022943;28;20669;-78
2021/12/16 05:41:08;;;;;;;88.37;47.63;;;9.50;99.90;;;;;;5039707;28;20230;-78
2021/12/16 05:43:38;;;;;;;89.07;46.07;;;9.60;99.90;;;;;;5027335;28;20205;-78
2021/12/16 05:46:07;;;;;;;94.07;47.90;;;9.70;99.90;;;;;;5046422;28;20195;-78
2021/12/16 05:48:42;;;;;;;89.50;46.33;;;9.60;99.90;;;;;;5045623;28;20210;-78
2021/12/16 05:51:13;;;;;;;85.87;47.20;;;9.70;99.90;;;;;;5030622;28;20218;-78
2021/12/16 05:53:42;;;;;;;87.83;46.77;;;9.50;99.90;;;;;;5023236;28;20674;-78
2021/12/16 05:56:24;;;;;;;95.53;47.53;;;9.50;99.90;;;;;;5043886;28;20585;-78
2021/12/16 05:58:52;;;;;;;93.57;47.37;;;9.50;99.90;;;;;;5026347;28;20232;-78
2021/12/16 06:01:30;;;;;;;94.07;51.00;;;9.50;99.90;;;;;;5039899;28;20702;-78
2021/12/16 06:04:00;;;;;;;89.73;48.27;;;9.50;99.90;;;;;;5022157;28;20210;-78
2021/12/16 06:06:29;;;;;;;92.93;47.93;;;9.60;99.90;;;;;;5031207;28;20652;-78
2021/12/16 06:08:58;;;;;;;96.30;50.53;;;9.50;99.90;;;;;;5044489;28;20210;-78
2021/12/16 06:11:29;;;;;;;90.77;49.10;;;9.50;99.90;;;;;;5031370;28;20235;-78
2021/12/16 06:14:08;;;;;;;96.03;47.93;;;9.50;99.90;;;;;;5040520;28;20202;-78
2021/12/16 06:28:10;;;;;;;100.00;49.33;;;9.50;99.90;;;;;;4974828;28;20303;-78
2021/12/16 06:30:41;;;;;;;91.83;48.33;;;9.60;99.90;;;;;;5023167;28;20229;-78
2021/12/16 06:33:10;;;;;;;102.87;50.53;;;9.50;99.90;;;;;;5038532;28;20290;-78
2021/12/16 06:35:40;;;;;;;98.13;51.17;;;9.40;99.90;;;;;;5029149;28;20580;-78
2021/12/16 06:38:10;;;;;;;114.23;53.07;;;9.40;99.90;;;;;;5046323;28;20202;-78
2021/12/16 06:40:57;;;;;;;107.83;51.10;;;9.30;99.90;;;;;;5044377;28;20601;-78
2021/12/16 06:44:19;;;;;;;117.37;55.33;;;9.30;99.90;;;;;;5037074;28;20206;-77
2021/12/16 06:46:48;;;;;;;110.30;53.87;;;9.30;99.90;;;;;;5035172;28;20671;-78
2021/12/16 06:49:17;;;;;;;120.43;55.50;;;9.40;99.90;;;;;;5053605;28;20230;-78
2021/12/16 06:51:51;;;;;;;114.30;55.50;;;9.30;99.90;;;;;;5030094;28;20210;-78
2021/12/16 06:54:29;;;;;;;118.40;57.83;;;9.30;99.90;;;;;;5044937;28;20198;-77
2021/12/16 06:57:13;;;;;;;119.77;55.50;;;9.30;99.90;;;;;;5023840;28;20555;-77
2021/12/16 06:59:53;;;;;;;116.10;57.37;;;9.50;99.90;;;;;;5023070;28;20195;-77
2021/12/16 07:02:40;;;;;;;120.77;57.53;;;9.40;99.90;;;;;;5049523;28;20585;-78
2021/12/16 07:05:31;;;;;;;135.17;59.70;;;9.30;99.90;;;;;;5034596;28;20202;-77
2021/12/16 07:08:02;;;;;;;128.47;59.63;;;9.30;99.90;;;;;;5033015;28;20195;-78
2021/12/16 07:10:45;;;;;;;137.93;62.67;;;9.30;99.90;;;;;;5049771;28;20651;-78
2021/12/16 07:13:18;;;;;;;128.37;61.70;;;9.30;99.90;;;;;;5025825;28;20199;-78
2021/12/16 07:15:47;;;;;;;123.53;57.93;;;9.30;99.90;;;;;;5038822;28;20199;-78
2021/12/16 07:18:15;;;;;;;120.43;58.33;;;9.40;99.90;;;;;;5050504;28;20653;-78
2021/12/16 07:20:42;;;;;;;121.07;57.57;;;9.50;99.90;;;;;;5025302;28;20211;-78
2021/12/16 07:23:12;;;;;;;109.17;55.87;;;9.50;99.90;;;;;;5048860;28;20202;-77
2021/12/16 07:25:40;;;;;;;111.83;55.03;;;9.60;99.90;;;;;;5046047;28;20206;-77
2021/12/16 07:28:09;;;;;;;115.87;58.00;;;9.60;99.90;;;;;;5049629;28;20649;-78
2021/12/16 07:30:38;;;;;;;116.10;57.53;;;9.60;99.90;;;;;;5042578;28;20219;-78
2021/12/16 07:33:07;;;;;;;111.70;55.03;;;9.60;99.90;;;;;;5047053;28;20195;-77
2021/12/16 07:35:37;;;;;;;107.93;55.17;;;9.70;99.90;;;;;;5043371;28;20202;-76
2021/12/16 07:38:05;;;;;;;119.13;54.03;;;9.80;99.90;;;;;;5047994;28;20246;-77
2021/12/16 07:40:36;;;;;;;105.30;55.63;;;9.90;99.90;;;;;;5029086;28;20230;-75
2021/12/16 07:43:24;;;;;;;112.30;56.47;;;9.90;99.90;;;;;;5028869;28;20553;-76
2021/12/16 07:45:54;;;;;;;113.60;56.73;;;9.80;99.90;;;;;;5025239;28;20662;-76
2021/12/16 07:48:23;;;;;;;108.10;56.03;;;9.80;99.90;;;;;;5030799;28;20198;-76
2021/12/16 07:50:54;;;;;;;114.27;55.43;;;9.70;99.90;;;;;;5047225;28;20218;-76
2021/12/16 07:53:22;;;;;;;106.17;52.47;;;9.50;99.90;;;;;;5049499;28;20696;-76
2021/12/16 07:55:51;;;;;;;112.30;54.37;;;9.60;99.90;;;;;;5045333;28;20199;-76
2021/12/16 07:58:20;;;;;;;117.40;57.63;;;9.60;99.90;;;;;;5047995;28;20575;-76
2021/12/16 08:00:48;;;;;;;113.50;55.47;;;9.70;99.90;;;;;;5032062;28;20234;-76
2021/12/16 08:03:20;;;;;;;103.60;52.60;;;9.60;99.90;;;;;;5034008;28;20198;-76
2021/12/16 08:05:54;;;;;;;94.03;50.50;;;9.70;99.90;;;;;;5034354;28;20693;-75
2021/12/16 08:08:25;;;;;;;88.93;50.13;;;9.80;99.90;;;;;;5042007;28;20224;-76
2021/12/16 08:10:54;;;;;;;94.17;51.50;;;9.90;99.90;;;;;;5028035;28;20218;-76
2021/12/16 08:13:22;;;;;;;99.03;50.10;;;9.90;99.90;;;;;;5046495;28;20199;-77
2021/12/16 08:15:49;;;;;;;95.40;51.17;;;9.90;99.90;;;;;;5023127;28;20697;-76
2021/12/16 08:18:18;;;;;;;95.90;48.37;;;9.90;99.90;;;;;;5032568;28;20230;-76
2021/12/16 08:20:45;;;;;;;90.10;48.93;;;9.90;99.90;;;;;;5031998;28;20222;-79
2021/12/16 08:23:13;;;;;;;95.53;50.97;;;9.90;99.90;;;;;;5025955;28;20206;-76
2021/12/16 08:25:40;;;;;;;87.60;48.00;;;9.80;99.90;;;;;;5030047;28;20206;-76
2021/12/16 08:28:10;;;;;;;85.67;48.10;;;9.80;99.90;;;;;;5031806;28;20206;-76
2021/12/16 08:30:46;;;;;;;92.70;49.00;;;9.90;99.90;;;;;;5030353;28;20230;-77
2021/12/16 08:33:14;;;;;;;89.83;49.17;;;9.90;99.90;;;;;;5044762;28;20222;-76
2021/12/16 08:39:08;;;;;;;92.23;48.77;;;9.80;99.90;;;;;;5021970;28;20195;-76
2021/12/16 08:41:41;;;;;;;85.00;49.43;;;9.90;99.90;;;;;;5028825;28;20217;-77
2021/12/16 08:44:10;;;;;;;91.20;50.40;;;9.90;99.90;;;;;;5033001;28;20197;-77
2021/12/16 08:46:42;;;;;;;92.30;49.37;;;9.90;99.90;;;;;;5029755;28;20682;-76
2021/12/16 08:49:10;;;;;;;90.13;48.67;;;9.90;99.90;;;;;;5048453;28;20199;-76
2021/12/16 08:51:42;;;;;;;92.73;48.80;;;9.90;99.90;;;;;;5031251;28;20222;-76
2021/12/16 08:54:10;;;;;;;91.90;49.67;;;9.80;99.90;;;;;;5048863;28;20195;-76
2021/12/16 08:56:38;;;;;;;95.90;51.43;;;9.90;99.90;;;;;;5021417;28;20196;-76
2021/12/16 08:59:06;;;;;;;88.77;49.87;;;9.90;99.90;;;;;;5022172;28;20199;-76
2021/12/16 09:01:39;;;;;;;105.73;53.53;;;9.90;99.90;;;;;;5041203;28;20222;-76
2021/12/16 09:04:07;;;;;;;97.87;52.07;;;10.00;99.90;;;;;;5017381;28;20203;-76
2021/12/16 09:06:36;;;;;;;101.40;52.60;;;9.90;99.90;;;;;;5048842;28;20195;-76
2021/12/16 09:09:05;;;;;;;105.33;51.23;;;9.80;99.90;;;;;;5041498;28;20556;-76
2021/12/16 09:11:37;;;;;;;100.23;51.30;;;9.90;99.90;;;;;;5027829;28;20227;-76
2021/12/16 09:14:05;;;;;;;105.93;50.63;;;9.90;99.90;;;;;;5012693;28;20196;-76
2021/12/16 09:16:36;;;;;;;97.30;50.77;;;9.90;99.90;;;;;;5028536;28;20530;-76
2021/12/16 09:19:05;;;;;;;99.60;50.30;;;9.80;99.90;;;;;;5048869;28;20569;-76
2021/12/16 09:21:36;;;;;;;101.53;49.47;;;9.90;99.90;;;;;;5013647;28;20231;-76
2021/12/16 09:24:08;;;;;;;99.73;49.80;;;10.00;99.90;;;;;;5028470;28;20211;-76
2021/12/16 09:26:36;;;;;;;98.17;51.97;;;10.00;99.90;;;;;;5024804;28;20268;-76
2021/12/16 09:29:04;;;;;;;96.47;52.87;;;9.80;99.90;;;;;;5030860;28;20584;-76
2021/12/16 09:31:32;;;;;;;95.10;49.40;;;9.70;99.90;;;;;;5048288;28;20219;-76
2021/12/16 09:34:04;;;;;;;98.93;49.27;;;9.60;99.90;;;;;;5032295;28;20234;-76
2021/12/16 09:36:32;;;;;;;89.40;45.73;;;9.60;99.90;;;;;;5028729;28;20199;-76
2021/12/16 09:38:59;;;;;;;90.93;45.97;;;9.60;99.90;;;;;;5046523;28;20677;-76
2021/12/16 09:41:28;;;;;;;96.83;49.63;;;9.80;99.90;;;;;;5029923;28;20245;-76
2021/12/16 09:44:00;;;;;;;90.50;49.43;;;9.80;99.90;;;;;;5048682;28;20573;-76
2021/12/16 09:46:29;;;;;;;96.67;50.27;;;9.80;99.90;;;;;;5047675;28;20210;-76
2021/12/16 09:48:57;;;;;;;96.77;51.40;;;9.90;99.90;;;;;;5036570;28;20218;-76
2021/12/16 09:51:29;;;;;;;98.13;53.37;;;10.00;99.90;;;;;;5015913;28;20351;-76
2021/12/16 09:53:59;;;;;;;97.80;53.07;;;9.90;99.90;;;;;;5032420;28;20234;-76
2021/12/16 09:56:28;;;;;;;91.73;46.93;;;9.90;99.90;;;;;;5022198;28;20600;-76
2021/12/16 09:58:57;;;;;;;102.40;50.77;;;9.90;99.90;;;;;;5011577;28;20223;-76
2021/12/16 10:01:26;;;;;;;111.07;52.50;;;9.80;99.90;;;;;;5030093;28;20235;-76
2021/12/16 10:04:01;;;;;;;103.00;49.77;;;9.50;99.90;;;;;;5033015;28;20274;-76
2021/12/16 10:06:31;;;;;;;108.93;53.03;;;9.40;99.90;;;;;;5031940;28;20554;-76
2021/12/16 10:09:01;;;;;;;109.20;51.67;;;9.40;99.90;;;;;;5047877;28;20290;-76
2021/12/16 10:11:29;;;;;;;104.17;49.07;;;9.40;99.90;;;;;;5029309;28;20245;-75
2021/12/16 10:14:04;;;;;;;101.80;46.47;;;9.40;99.90;;;;;;5047762;28;20653;-76
2021/12/16 10:19:19;;;;;;;89.03;41.77;;;9.40;99.90;;;;;;5023158;28;20211;-76
2021/12/16 10:21:49;;;;;;;92.43;44.87;;;9.50;99.90;;;;;;5012035;28;20223;-76
2021/12/16 10:24:25;;;;;;;82.63;43.00;;;9.50;99.90;;;;;;5043601;28;20214;-76
2021/12/16 10:27:12;;;;;;;90.60;46.93;;;9.70;99.90;;;;;;5042079;28;20194;-76
2021/12/16 10:29:43;;;;;;;84.33;40.70;;;9.80;99.90;;;;;;5034178;28;20711;-76
2021/12/16 10:32:38;;;;;;;88.00;42.67;;;9.80;99.90;;;;;;5047028;28;20226;-75
2021/12/16 10:35:09;;;;;;;89.33;44.07;;;9.70;99.90;;;;;;5039661;28;20207;-76
2021/12/16 10:37:41;;;;;;;89.00;46.13;;;9.70;99.90;;;;;;5010872;28;20199;-76
2021/12/16 10:40:31;;;;;;;94.50;44.40;;;9.70;99.90;;;;;;5028741;28;20195;-75
2021/12/16 10:43:01;;;;;;;94.33;46.17;;;9.60;99.90;;;;;;5031234;28;20199;-76
2021/12/16 10:45:31;;;;;;;117.57;51.67;;;9.60;99.90;;;;;;5030767;28;20214;-75
2021/12/16 10:48:17;;;;;;;106.10;48.50;;;9.60;99.90;;;;;;5047957;28;20199;-76
2021/12/16 10:51:07;;;;;;;108.00;50.47;;;9.50;99.90;;;;;;5028186;28;20233;-76
2021/12/16 10:54:12;;;;;;;116.73;50.20;;;9.70;99.90;;;;;;5029708;28;20198;-76
2021/12/16 10:56:54;;;;;;;118.23;53.83;;;9.80;99.90;;;;;;5031802;28;20195;-76
2021/12/16 10:59:26;;;;;;;117.43;52.90;;;9.90;99.90;;;;;;5032006;28;20195;-76
2021/12/16 11:02:09;;;;;;;131.67;52.23;;;9.70;99.90;;;;;;5046835;28;20227;-76
2021/12/16 11:04:41;;;;;;;118.27;52.33;;;9.70;99.90;;;;;;5020923;28;20199;-76
2021/12/16 11:07:19;;;;;;;115.27;47.77;;;9.80;99.90;;;;;;5030815;28;20195;-75
2021/12/16 11:09:52;;;;;;;121.40;50.97;;;9.80;99.90;;;;;;5035284;28;20552;-76
2021/12/16 11:12:45;;;;;;;110.07;50.00;;;9.90;99.90;;;;;;5063139;28;20236;-76
2021/12/16 11:15:18;;;;;;;113.50;49.73;;;9.90;99.90;;;;;;5055716;28;20202;-76
2021/12/16 11:17:49;;;;;;;120.67;50.17;;;9.90;99.90;;;;;;5051022;28;20210;-76
2021/12/16 11:20:26;;;;;;;117.50;51.77;;;9.90;99.90;;;;;;5031834;28;20261;-76
2021/12/16 11:22:55;;;;;;;112.67;51.60;;;9.90;99.90;;;;;;5032153;28;20569;-76
2021/12/16 11:25:28;;;;;;;100.80;48.93;;;9.80;99.90;;;;;;5019092;28;20203;-76
2021/12/16 11:28:05;;;;;;;114.73;51.00;;;10.00;99.90;;;;;;5066415;28;20668;-76
2021/12/16 11:30:37;;;;;;;122.13;50.63;;;9.90;99.90;;;;;;5040272;28;20211;-76
2021/12/16 11:33:23;;;;;;;114.33;51.33;;;9.80;99.90;;;;;;5047183;28;20202;-76
2021/12/16 11:35:58;;;;;;;108.63;51.60;;;10.00;99.90;;;;;;5031993;28;20183;-76
2021/12/16 11:38:33;;;;;;;124.73;53.50;;;10.10;99.90;;;;;;5047068;28;20214;-76
2021/12/16 11:41:20;;;;;;;117.80;53.83;;;9.90;99.90;;;;;;5031668;28;20221;-76
2021/12/16 11:43:55;;;;;;;131.60;52.00;;;9.80;99.90;;;;;;5044477;28;20206;-76
2021/12/16 11:46:31;;;;;;;129.50;52.23;;;9.80;99.90;;;;;;5045203;28;20203;-76
2021/12/16 11:49:04;;;;;;;134.07;53.70;;;9.70;99.90;;;;;;5044985;28;20195;-76
2021/12/16 11:52:12;;;;;;;125.13;52.27;;;9.80;99.90;;;;;;5069951;28;20699;-76
2021/12/16 11:54:43;;;;;;;133.17;55.23;;;10.00;99.90;;;;;;5055447;28;20189;-76
2021/12/16 11:57:15;;;;;;;121.07;52.90;;;10.10;99.90;;;;;;5053446;28;20198;-76
2021/12/16 11:59:46;;;;;;;126.73;52.70;;;10.10;99.90;;;;;;5035155;28;20211;-76
2021/12/16 12:02:27;;;;;;;142.97;57.27;;;10.10;99.90;;;;;;5055723;28;20719;-76
2021/12/16 12:05:15;;;;;;;134.87;56.43;;;9.90;99.90;;;;;;5064150;28;20194;-76
2021/12/16 12:07:44;;;;;;;160.57;61.03;;;9.80;99.90;;;;;;5041536;28;20195;-76
2021/12/16 12:10:14;;;;;;;161.67;64.23;;;9.70;99.90;;;;;;5033924;28;20194;-76
2021/12/16 12:12:47;;;;;;;161.30;62.37;;;9.50;99.90;;;;;;5031935;28;20645;-76
2021/12/16 12:15:17;;;;;;;153.50;59.27;;;9.60;99.90;;;;;;5026513;28;20194;-76
2021/12/16 12:17:49;;;;;;;142.30;56.50;;;9.80;99.90;;;;;;5041576;28;20191;-76
2021/12/16 12:20:18;;;;;;;145.30;56.13;;;9.90;99.90;;;;;;5032882;28;20230;-76
2021/12/16 12:22:50;;;;;;;143.37;56.53;;;9.90;99.90;;;;;;5050401;28;20210;-76
2021/12/16 12:25:18;;;;;;;130.57;52.83;;;10.00;99.90;;;;;;5043691;28;20191;-76
2021/12/16 12:28:11;;;;;;;134.93;53.70;;;10.00;99.90;;;;;;5041022;28;20194;-76
2021/12/16 12:30:38;;;;;;;124.00;53.23;;;10.00;99.90;;;;;;5045797;28;20227;-76
2021/12/16 12:33:06;;;;;;;125.67;52.87;;;10.00;99.90;;;;;;5013294;28;20203;-76
2021/12/16 12:35:33;;;;;;;135.70;55.27;;;10.00;99.90;;;;;;5014788;28;20198;-76
2021/12/16 12:38:01;;;;;;;131.23;55.77;;;10.00;99.90;;;;;;5014259;28;20194;-76
2021/12/16 12:40:32;;;;;;;122.60;52.40;;;10.10;99.90;;;;;;5041611;28;20223;-76
2021/12/16 12:43:00;;;;;;;125.83;50.70;;;10.00;99.90;;;;;;5068936;28;20217;-76
2021/12/16 12:45:34;;;;;;;110.67;50.83;;;10.10;99.90;;;;;;5052593;28;20600;-76
2021/12/16 12:48:03;;;;;;;117.27;50.93;;;10.20;99.90;;;;;;5048752;28;20215;-76
2021/12/16 12:50:33;;;;;;;116.13;50.13;;;10.30;99.90;;;;;;5032826;28;20223;-76
2021/12/16 12:53:14;;;;;;;126.50;53.30;;;10.10;99.90;;;;;;5047698;28;20207;-76
2021/12/16 12:55:42;;;;;;;121.90;52.33;;;10.10;99.90;;;;;;5012764;28;20200;-75
2021/12/16 12:58:13;;;;;;;126.97;53.47;;;10.00;99.90;;;;;;5027852;28;20205;-76
2021/12/16 13:00:46;;;;;;;125.30;50.97;;;9.90;99.90;;;;;;5058116;28;20223;-76
2021/12/16 13:03:17;;;;;;;113.67;50.33;;;10.00;99.90;;;;;;5034294;28;20255;-75
2021/12/16 13:05:51;;;;;;;113.73;50.77;;;10.00;99.90;;;;;;5060856;28;20195;-76
2021/12/16 13:08:26;;;;;;;112.50;50.77;;;10.10;99.90;;;;;;5049252;28;20534;-76
2021/12/16 13:10:58;;;;;;;113.30;52.03;;;10.10;99.90;;;;;;5031635;28;20564;-76
2021/12/16 13:13:37;;;;;;;115.30;50.43;;;10.20;99.90;;;;;;5048639;28;20206;-76
2021/12/16 13:16:37;;;;;;;112.93;50.37;;;10.30;99.90;;;;;;5048701;28;20198;-76
2021/12/16 13:25:29;;;;;;;114.10;51.30;;;10.10;99.90;;;;;;5019516;28;20214;-75
2021/12/16 13:28:01;;;;;;;112.80;52.60;;;10.10;99.90;;;;;;5021893;28;20199;-76
2021/12/16 13:30:35;;;;;;;107.87;50.47;;;10.10;99.90;;;;;;5026104;28;20699;-76
2021/12/16 13:33:39;;;;;;;118.47;53.53;;;10.20;99.90;;;;;;5040909;28;20214;-76
2021/12/16 13:36:16;;;;;;;118.63;51.23;;;10.40;99.90;;;;;;5026970;28;20201;-75
2021/12/16 13:38:50;;;;;;;117.80;52.33;;;10.40;99.90;;;;;;5028901;28;20191;-76
2021/12/16 13:41:20;;;;;;;101.60;48.63;;;10.40;99.90;;;;;;5042664;28;20246;-76
2021/12/16 13:44:07;;;;;;;113.60;51.30;;;10.40;99.90;;;;;;5048134;28;20210;-76
2021/12/16 13:47:00;;;;;;;121.17;49.97;;;10.20;99.90;;;;;;5033598;28;20667;-77
2021/12/16 13:58:43;;;;;;;109.13;49.83;;;10.30;99.90;;;;;;5029955;28;20258;-76
2021/12/16 14:04:24;;;;;;;113.10;50.43;;;10.30;99.90;;;;;;5037434;28;20188;-77
2021/12/16 14:07:26;;;;;;;113.47;50.23;;;10.40;99.90;;;;;;5031075;28;20190;-76
2021/12/16 14:10:04;;;;;;;123.70;53.70;;;10.40;99.90;;;;;;5043289;28;20195;-76
2021/12/16 14:15:58;;;;;;;116.27;52.83;;;10.20;99.90;;;;;;5088556;28;20581;-75
2021/12/16 14:23:01;;;;;;;126.83;53.60;;;10.10;99.90;;;;;;5068597;28;20647;-74
2021/12/16 14:25:14;;;;;;;114.43;50.93;;;10.00;99.90;;;;;;5035247;28;20194;-75
2021/12/16 14:40:51;;;;;;;141.33;58.17;;;10.10;99.90;;;;;;5071869;28;20185;-76
2021/12/16 14:43:36;;;;;;;138.23;57.43;;;10.10;99.90;;;;;;5060557;28;20256;-75
2021/12/16 14:46:06;;;;;;;134.43;56.63;;;10.20;99.90;;;;;;5075989;28;20671;-75
2021/12/16 14:48:35;;;;;;;145.63;60.80;;;10.10;99.90;;;;;;5070375;28;20201;-75
2021/12/16 14:51:07;;;;;;;146.50;58.20;;;10.00;99.90;;;;;;5068199;28;20213;-75
2021/12/16 14:53:38;;;;;;;143.13;59.87;;;10.00;99.90;;;;;;5069412;28;20182;-75
2021/12/16 14:56:09;;;;;;;131.43;56.97;;;10.10;99.90;;;;;;5069326;28;20660;-76
2021/12/16 14:58:38;;;;;;;138.77;57.03;;;10.10;99.90;;;;;;5064782;28;20559;-75
2021/12/16 15:01:09;;;;;;;127.60;57.47;;;10.10;99.90;;;;;;5064627;28;20218;-76
2021/12/16 15:03:40;;;;;;;129.77;55.83;;;10.10;99.90;;;;;;5073995;28;20197;-75
2021/12/16 15:06:13;;;;;;;118.23;55.13;;;10.00;99.90;;;;;;5068052;28;20205;-75
2021/12/16 15:08:48;;;;;;;121.27;53.20;;;10.10;99.90;;;;;;5068318;28;20643;-75
2021/12/16 15:11:27;;;;;;;128.97;56.77;;;10.20;99.90;;;;;;5067829;28;20217;-76
2021/12/16 15:13:58;;;;;;;115.13;52.47;;;10.30;99.90;;;;;;5067531;28;20697;-76
2021/12/16 15:16:46;;;;;;;109.80;52.27;;;10.30;99.90;;;;;;5067569;28;20672;-75
2021/12/16 15:36:48;;;;;;;126.03;52.97;;;9.90;99.90;;;;;;5061735;28;20221;-75
2021/12/16 15:39:40;;;;;;;114.97;53.77;;;9.80;99.90;;;;;;5066861;28;20194;-75
2021/12/16 15:45:01;;;;;;;121.87;52.93;;;10.00;99.90;;;;;;5081331;28;20193;-75
2021/12/16 15:47:28;;;;;;;122.53;53.50;;;10.10;99.90;;;;;;5056161;28;20198;-77
2021/12/16 15:49:57;;;;;;;114.60;54.07;;;10.10;99.90;;;;;;5054288;28;20198;-77
2021/12/16 15:52:40;;;;;;;113.93;52.57;;;10.00;99.90;;;;;;5070595;28;20679;-77
2021/12/16 15:55:13;;;;;;;111.30;49.97;;;10.10;99.90;;;;;;5070649;28;20668;-77
2021/12/16 15:57:40;;;;;;;101.07;50.17;;;10.10;99.90;;;;;;5069702;28;20217;-77
2021/12/16 16:00:13;;;;;;;104.80;50.10;;;10.10;99.90;;;;;;5053801;28;20641;-77